Bowling Green, SC (29703)

7:03 AM EDT on April 30, 2017 (GMT -0400)
THE GLEN AT CLOVER | | Change Station

Elev 751 ft 35.16 °N, 81.24 °W | Updated 32 seconds ago

Overcast
Overcast
69.3 °F
Feels Like 69.3 °F
N
2.7
Wind Variable Wind from South

Today
High -- | Low -- °F
--% Chance of Precip.
Yesterday
High -- | Low -- °F
Precip. -- in
Pressure 30.15 in
Visibility 6.0 miles
Clouds Few 1400 ft
Overcast 2400 ft
Dew Point 68 °F
Humidity 95%
Rainfall 0.00 in
Snow Depth Not available.
6:34 AM 8:09 PM
Waxing Crescent, 22% visible
METAR KAKH 301054Z AUTO 19004KT 6SM HZ FEW014 OVC024 21/18 A3017 RMK AO2 SLP210 T02110178
Pressure 30.15 in
Visibility 6.0 miles
Clouds Few 1400 ft
Overcast 2400 ft
Dew Point 68 °F
Humidity 95%
Rainfall 0.00 in
Snow Depth Not available.
6:34 AM 8:09 PM
Waxing Crescent, 22% visible
METAR KAKH 301054Z AUTO 19004KT 6SM HZ FEW014 OVC024 21/18 A3017 RMK AO2 SLP210 T02110178

Get Severe Weather Alerts

Thanks for signing up!

Be on the lookout for a verification email in your inbox.

You'll start receiving the daily forecast at 8 AM.

×

10-Day Weather Forecast

Almanac

Astronomy

Apr. 30, 2017 Rise Set
Actual Time
Civil Twilight
Nautical Twilight
Astronomical Twilight
Moon
Length of Visible Light
Length of Day
Tomorrow will be .
, % of the Moon is Illuminated

Today's Extremes

State Highs State Lows

Community

WunderPhotos

WunderBlog® & News

Nearby

Air Quality

  Air Quality AQ Index Pollutant
Not available.

Snow Depth

Station Depth Elevation

Earthquake Activity

City Distance Mag. Time & Date
Minimum magnitude displayed is 2.5.

Coastal Water Temperatures

Place Temperature

Stations

Nearby Weather Stations

Station Location Temp. Windchill Dew Point Humidity Wind Precip. Elev Updated Type
                   

Watches & Warnings

There are currently no watches in effect.